LFGM weather

Montceau Les Mines Airfield
Burgundy, France

Public forecast

Using degrees Celsius for public forecast. Weather courtesy of forecast.io.

METAR (pilot weather report)

Closest report is Saint-Yan Airport, 17.6 nm (32.5 km) SW. Retrieved 2019/07/18 14:30 UTC (0 seconds ago):

LFLN 181430Z AUTO 28010KT 250V320 CAVOK 27/09 Q1015 NOSIG

TAF (pilot weather forecast)

Forecast is more than 12 hours old.

Closest forecast is Dijon-Bourgogne Airport, 50.5 nm (93.6 km) NE. Retrieved 2015/06/01 00:11 UTC (4 years ago):

TAF LFSD 010600Z 0100/0124 CNL